sensor_id;sensor_type;location;lat;lon;timestamp;P1;durP1;ratioP1;P2;durP2;ratioP2
76852;SDS011;65825;52.232;10.566;2024-01-11T00:00:12;38.87;;;15.90;;
76852;SDS011;65825;52.232;10.566;2024-01-11T00:02:37;37.47;;;15.82;;
76852;SDS011;65825;52.232;10.566;2024-01-11T00:05:03;36.07;;;14.87;;
76852;SDS011;65825;52.232;10.566;2024-01-11T00:07:28;37.42;;;15.85;;
76852;SDS011;65825;52.232;10.566;2024-01-11T00:09:54;38.97;;;14.87;;
76852;SDS011;65825;52.232;10.566;2024-01-11T00:12:19;36.20;;;15.30;;
76852;SDS011;65825;52.232;10.566;2024-01-11T00:14:44;30.50;;;13.07;;
76852;SDS011;65825;52.232;10.566;2024-01-11T00:17:09;37.07;;;13.50;;
76852;SDS011;65825;52.232;10.566;2024-01-11T00:19:35;32.90;;;12.77;;
76852;SDS011;65825;52.232;10.566;2024-01-11T00:22:00;38.77;;;12.63;;
76852;SDS011;65825;52.232;10.566;2024-01-11T00:24:25;38.30;;;15.57;;
76852;SDS011;65825;52.232;10.566;2024-01-11T00:26:50;34.17;;;14.37;;
76852;SDS011;65825;52.232;10.566;2024-01-11T00:29:15;31.00;;;12.87;;
76852;SDS011;65825;52.232;10.566;2024-01-11T00:31:41;35.37;;;14.17;;
76852;SDS011;65825;52.232;10.566;2024-01-11T00:34:06;44.92;;;12.93;;
76852;SDS011;65825;52.232;10.566;2024-01-11T00:36:31;34.60;;;14.00;;
76852;SDS011;65825;52.232;10.566;2024-01-11T00:38:58;38.90;;;13.38;;
76852;SDS011;65825;52.232;10.566;2024-01-11T00:41:24;30.63;;;13.43;;
76852;SDS011;65825;52.232;10.566;2024-01-11T00:43:50;24.00;;;12.73;;
76852;SDS011;65825;52.232;10.566;2024-01-11T00:46:15;31.33;;;13.87;;
76852;SDS011;65825;52.232;10.566;2024-01-11T00:48:40;34.07;;;11.83;;
76852;SDS011;65825;52.232;10.566;2024-01-11T00:51:05;31.47;;;13.00;;
76852;SDS011;65825;52.232;10.566;2024-01-11T00:53:31;36.55;;;15.27;;
76852;SDS011;65825;52.232;10.566;2024-01-11T00:55:58;28.67;;;13.07;;
76852;SDS011;65825;52.232;10.566;2024-01-11T00:58:23;33.03;;;12.82;;
76852;SDS011;65825;52.232;10.566;2024-01-11T01:00:48;31.00;;;14.93;;
76852;SDS011;65825;52.232;10.566;2024-01-11T01:03:14;29.92;;;13.27;;
76852;SDS011;65825;52.232;10.566;2024-01-11T01:05:41;33.90;;;14.10;;
76852;SDS011;65825;52.232;10.566;2024-01-11T01:08:06;38.70;;;14.53;;
76852;SDS011;65825;52.232;10.566;2024-01-11T01:10:31;40.07;;;14.03;;
76852;SDS011;65825;52.232;10.566;2024-01-11T01:12:56;39.20;;;14.20;;
76852;SDS011;65825;52.232;10.566;2024-01-11T01:15:22;50.67;;;16.63;;
76852;SDS011;65825;52.232;10.566;2024-01-11T01:17:47;38.40;;;13.57;;
76852;SDS011;65825;52.232;10.566;2024-01-11T01:20:12;44.63;;;16.10;;
76852;SDS011;65825;52.232;10.566;2024-01-11T01:22:37;36.87;;;14.73;;
76852;SDS011;65825;52.232;10.566;2024-01-11T01:25:03;37.97;;;15.00;;
76852;SDS011;65825;52.232;10.566;2024-01-11T01:27:28;31.17;;;12.02;;
76852;SDS011;65825;52.232;10.566;2024-01-11T01:29:54;34.50;;;14.70;;
76852;SDS011;65825;52.232;10.566;2024-01-11T01:32:19;34.87;;;14.37;;
76852;SDS011;65825;52.232;10.566;2024-01-11T01:34:44;37.37;;;14.20;;
76852;SDS011;65825;52.232;10.566;2024-01-11T01:37:09;37.20;;;13.67;;
76852;SDS011;65825;52.232;10.566;2024-01-11T01:39:37;32.27;;;12.23;;
76852;SDS011;65825;52.232;10.566;2024-01-11T01:42:03;32.97;;;11.65;;
76852;SDS011;65825;52.232;10.566;2024-01-11T01:44:29;40.25;;;14.93;;
76852;SDS011;65825;52.232;10.566;2024-01-11T01:46:54;29.15;;;11.25;;
76852;SDS011;65825;52.232;10.566;2024-01-11T01:49:19;33.63;;;12.73;;
76852;SDS011;65825;52.232;10.566;2024-01-11T01:51:47;29.48;;;10.93;;
76852;SDS011;65825;52.232;10.566;2024-01-11T01:54:13;32.40;;;13.02;;
76852;SDS011;65825;52.232;10.566;2024-01-11T01:56:39;30.50;;;12.50;;
76852;SDS011;65825;52.232;10.566;2024-01-11T01:59:04;29.00;;;11.98;;
76852;SDS011;65825;52.232;10.566;2024-01-11T02:01:30;30.35;;;13.05;;
76852;SDS011;65825;52.232;10.566;2024-01-11T02:03:55;35.40;;;14.07;;
76852;SDS011;65825;52.232;10.566;2024-01-11T02:06:21;22.20;;;11.43;;
76852;SDS011;65825;52.232;10.566;2024-01-11T02:08:51;28.42;;;11.90;;
76852;SDS011;65825;52.232;10.566;2024-01-11T02:11:18;26.10;;;11.32;;
76852;SDS011;65825;52.232;10.566;2024-01-11T02:13:45;25.42;;;11.85;;
76852;SDS011;65825;52.232;10.566;2024-01-11T02:16:10;38.53;;;14.52;;
76852;SDS011;65825;52.232;10.566;2024-01-11T02:18:37;33.20;;;12.60;;
76852;SDS011;65825;52.232;10.566;2024-01-11T02:21:03;86.07;;;28.03;;
76852;SDS011;65825;52.232;10.566;2024-01-11T02:23:33;72.45;;;25.13;;
76852;SDS011;65825;52.232;10.566;2024-01-11T02:26:01;83.78;;;26.10;;
76852;SDS011;65825;52.232;10.566;2024-01-11T02:28:26;70.97;;;22.67;;
76852;SDS011;65825;52.232;10.566;2024-01-11T02:30:52;70.37;;;23.10;;
76852;SDS011;65825;52.232;10.566;2024-01-11T02:33:17;59.37;;;22.10;;
76852;SDS011;65825;52.232;10.566;2024-01-11T02:35:43;37.10;;;16.02;;
76852;SDS011;65825;52.232;10.566;2024-01-11T02:38:09;37.67;;;15.30;;
76852;SDS011;65825;52.232;10.566;2024-01-11T02:40:34;39.47;;;16.25;;
76852;SDS011;65825;52.232;10.566;2024-01-11T02:43:07;44.97;;;14.75;;
76852;SDS011;65825;52.232;10.566;2024-01-11T02:45:33;28.90;;;11.18;;
76852;SDS011;65825;52.232;10.566;2024-01-11T02:47:58;24.87;;;12.30;;
76852;SDS011;65825;52.232;10.566;2024-01-11T02:50:23;29.02;;;12.43;;
76852;SDS011;65825;52.232;10.566;2024-01-11T02:52:49;33.33;;;13.80;;
76852;SDS011;65825;52.232;10.566;2024-01-11T02:55:14;27.30;;;12.40;;
76852;SDS011;65825;52.232;10.566;2024-01-11T02:57:39;26.37;;;11.33;;
76852;SDS011;65825;52.232;10.566;2024-01-11T03:00:05;24.73;;;11.57;;
76852;SDS011;65825;52.232;10.566;2024-01-11T03:02:31;27.98;;;13.15;;
76852;SDS011;65825;52.232;10.566;2024-01-11T03:04:56;36.97;;;12.83;;
76852;SDS011;65825;52.232;10.566;2024-01-11T03:07:22;28.73;;;11.57;;
76852;SDS011;65825;52.232;10.566;2024-01-11T03:09:47;22.43;;;11.13;;
76852;SDS011;65825;52.232;10.566;2024-01-11T03:12:12;32.17;;;11.70;;
76852;SDS011;65825;52.232;10.566;2024-01-11T03:14:37;33.87;;;14.33;;
76852;SDS011;65825;52.232;10.566;2024-01-11T03:17:03;26.93;;;12.33;;
76852;SDS011;65825;52.232;10.566;2024-01-11T03:19:28;26.35;;;11.38;;
76852;SDS011;65825;52.232;10.566;2024-01-11T03:21:53;29.53;;;14.10;;
76852;SDS011;65825;52.232;10.566;2024-01-11T03:24:18;28.57;;;10.93;;
76852;SDS011;65825;52.232;10.566;2024-01-11T03:26:44;31.77;;;15.50;;
76852;SDS011;65825;52.232;10.566;2024-01-11T03:29:09;34.87;;;13.13;;
76852;SDS011;65825;52.232;10.566;2024-01-11T03:31:34;25.90;;;10.83;;
76852;SDS011;65825;52.232;10.566;2024-01-11T03:33:59;31.90;;;13.13;;
76852;SDS011;65825;52.232;10.566;2024-01-11T03:36:25;28.63;;;12.80;;
76852;SDS011;65825;52.232;10.566;2024-01-11T03:38:50;35.63;;;15.10;;
76852;SDS011;65825;52.232;10.566;2024-01-11T03:41:16;36.03;;;13.85;;
76852;SDS011;65825;52.232;10.566;2024-01-11T03:43:41;44.77;;;14.37;;
76852;SDS011;65825;52.232;10.566;2024-01-11T03:46:06;39.13;;;16.30;;
76852;SDS011;65825;52.232;10.566;2024-01-11T03:48:31;31.83;;;12.63;;
76852;SDS011;65825;52.232;10.566;2024-01-11T03:50:57;33.27;;;14.80;;
76852;SDS011;65825;52.232;10.566;2024-01-11T03:53:22;34.17;;;15.00;;
76852;SDS011;65825;52.232;10.566;2024-01-11T03:55:47;36.37;;;13.17;;
76852;SDS011;65825;52.232;10.566;2024-01-11T03:58:12;39.53;;;14.10;;
76852;SDS011;65825;52.232;10.566;2024-01-11T04:00:38;35.13;;;12.50;;
76852;SDS011;65825;52.232;10.566;2024-01-11T04:03:03;31.60;;;13.13;;
76852;SDS011;65825;52.232;10.566;2024-01-11T04:05:28;34.47;;;13.90;;
76852;SDS011;65825;52.232;10.566;2024-01-11T04:07:54;31.60;;;14.53;;
76852;SDS011;65825;52.232;10.566;2024-01-11T04:10:19;36.77;;;14.70;;
76852;SDS011;65825;52.232;10.566;2024-01-11T04:12:44;33.63;;;14.17;;
76852;SDS011;65825;52.232;10.566;2024-01-11T04:15:12;30.00;;;14.83;;
76852;SDS011;65825;52.232;10.566;2024-01-11T04:17:38;29.55;;;13.45;;
76852;SDS011;65825;52.232;10.566;2024-01-11T04:20:04;33.25;;;14.40;;
76852;SDS011;65825;52.232;10.566;2024-01-11T04:22:30;36.60;;;13.05;;
76852;SDS011;65825;52.232;10.566;2024-01-11T04:24:55;30.73;;;12.60;;
76852;SDS011;65825;52.232;10.566;2024-01-11T04:27:21;27.93;;;13.60;;
76852;SDS011;65825;52.232;10.566;2024-01-11T04:29:46;37.93;;;14.83;;
76852;SDS011;65825;52.232;10.566;2024-01-11T04:32:11;39.23;;;14.70;;
76852;SDS011;65825;52.232;10.566;2024-01-11T04:34:36;37.60;;;14.57;;
76852;SDS011;65825;52.232;10.566;2024-01-11T04:37:02;32.63;;;13.27;;
76852;SDS011;65825;52.232;10.566;2024-01-11T04:39:27;35.20;;;14.98;;
76852;SDS011;65825;52.232;10.566;2024-01-11T04:41:52;34.57;;;12.37;;
76852;SDS011;65825;52.232;10.566;2024-01-11T04:44:18;29.77;;;14.87;;
76852;SDS011;65825;52.232;10.566;2024-01-11T04:46:43;32.07;;;13.97;;
76852;SDS011;65825;52.232;10.566;2024-01-11T04:49:08;42.77;;;15.77;;
76852;SDS011;65825;52.232;10.566;2024-01-11T04:51:33;36.30;;;15.40;;
76852;SDS011;65825;52.232;10.566;2024-01-11T04:53:59;34.97;;;15.03;;
76852;SDS011;65825;52.232;10.566;2024-01-11T04:56:24;34.63;;;13.80;;
76852;SDS011;65825;52.232;10.566;2024-01-11T04:58:49;30.30;;;14.73;;
76852;SDS011;65825;52.232;10.566;2024-01-11T05:01:15;47.23;;;15.27;;
76852;SDS011;65825;52.232;10.566;2024-01-11T05:03:42;27.40;;;12.85;;
76852;SDS011;65825;52.232;10.566;2024-01-11T05:06:14;33.20;;;12.50;;
76852;SDS011;65825;52.232;10.566;2024-01-11T05:08:40;35.97;;;13.98;;
76852;SDS011;65825;52.232;10.566;2024-01-11T05:11:05;34.60;;;14.43;;
76852;SDS011;65825;52.232;10.566;2024-01-11T05:13:31;31.03;;;13.23;;
76852;SDS011;65825;52.232;10.566;2024-01-11T05:15:56;35.17;;;13.87;;
76852;SDS011;65825;52.232;10.566;2024-01-11T05:18:21;40.33;;;16.77;;
76852;SDS011;65825;52.232;10.566;2024-01-11T05:20:46;34.60;;;13.50;;
76852;SDS011;65825;52.232;10.566;2024-01-11T05:23:12;31.97;;;14.50;;
76852;SDS011;65825;52.232;10.566;2024-01-11T05:25:37;41.90;;;13.77;;
76852;SDS011;65825;52.232;10.566;2024-01-11T05:28:03;23.87;;;14.03;;
76852;SDS011;65825;52.232;10.566;2024-01-11T05:30:28;38.67;;;15.45;;
76852;SDS011;65825;52.232;10.566;2024-01-11T05:32:54;33.95;;;14.38;;
76852;SDS011;65825;52.232;10.566;2024-01-11T05:35:19;35.33;;;13.33;;
76852;SDS011;65825;52.232;10.566;2024-01-11T05:37:45;26.20;;;12.82;;
76852;SDS011;65825;52.232;10.566;2024-01-11T05:40:10;36.73;;;14.23;;
76852;SDS011;65825;52.232;10.566;2024-01-11T05:42:36;34.87;;;11.67;;
76852;SDS011;65825;52.232;10.566;2024-01-11T05:45:02;31.63;;;13.57;;
76852;SDS011;65825;52.232;10.566;2024-01-11T05:47:30;27.58;;;12.65;;
76852;SDS011;65825;52.232;10.566;2024-01-11T05:49:56;31.30;;;14.77;;
76852;SDS011;65825;52.232;10.566;2024-01-11T05:52:21;23.83;;;9.90;;
76852;SDS011;65825;52.232;10.566;2024-01-11T05:54:46;27.87;;;11.33;;
76852;SDS011;65825;52.232;10.566;2024-01-11T05:57:12;32.92;;;12.57;;
76852;SDS011;65825;52.232;10.566;2024-01-11T05:59:37;27.60;;;10.33;;
76852;SDS011;65825;52.232;10.566;2024-01-11T06:02:02;29.87;;;11.77;;
76852;SDS011;65825;52.232;10.566;2024-01-11T06:04:28;18.93;;;10.53;;
76852;SDS011;65825;52.232;10.566;2024-01-11T06:06:53;22.73;;;11.67;;
76852;SDS011;65825;52.232;10.566;2024-01-11T06:09:18;35.27;;;12.93;;
76852;SDS011;65825;52.232;10.566;2024-01-11T06:11:43;35.67;;;14.90;;
76852;SDS011;65825;52.232;10.566;2024-01-11T06:14:09;30.17;;;12.20;;
76852;SDS011;65825;52.232;10.566;2024-01-11T06:16:34;27.47;;;12.87;;
76852;SDS011;65825;52.232;10.566;2024-01-11T06:18:59;23.47;;;11.77;;
76852;SDS011;65825;52.232;10.566;2024-01-11T06:21:24;52.37;;;21.63;;
76852;SDS011;65825;52.232;10.566;2024-01-11T06:23:50;38.13;;;15.77;;
76852;SDS011;65825;52.232;10.566;2024-01-11T06:26:16;31.20;;;10.30;;
76852;SDS011;65825;52.232;10.566;2024-01-11T06:28:41;24.77;;;9.87;;
76852;SDS011;65825;52.232;10.566;2024-01-11T06:31:06;26.23;;;10.63;;
76852;SDS011;65825;52.232;10.566;2024-01-11T06:33:31;31.33;;;11.23;;
76852;SDS011;65825;52.232;10.566;2024-01-11T06:35:58;22.88;;;9.15;;
76852;SDS011;65825;52.232;10.566;2024-01-11T06:38:23;26.88;;;12.25;;
76852;SDS011;65825;52.232;10.566;2024-01-11T06:40:48;29.50;;;11.33;;
76852;SDS011;65825;52.232;10.566;2024-01-11T06:43:14;27.37;;;11.83;;
76852;SDS011;65825;52.232;10.566;2024-01-11T06:45:39;30.85;;;10.20;;
76852;SDS011;65825;52.232;10.566;2024-01-11T06:48:05;28.80;;;12.68;;
76852;SDS011;65825;52.232;10.566;2024-01-11T06:50:31;27.15;;;11.20;;
76852;SDS011;65825;52.232;10.566;2024-01-11T06:52:56;35.83;;;12.50;;
76852;SDS011;65825;52.232;10.566;2024-01-11T06:55:21;27.33;;;11.57;;
76852;SDS011;65825;52.232;10.566;2024-01-11T06:57:47;32.27;;;11.40;;
76852;SDS011;65825;52.232;10.566;2024-01-11T07:00:13;27.02;;;11.82;;
76852;SDS011;65825;52.232;10.566;2024-01-11T07:02:38;34.30;;;13.93;;
76852;SDS011;65825;52.232;10.566;2024-01-11T07:05:05;24.10;;;11.60;;
76852;SDS011;65825;52.232;10.566;2024-01-11T07:07:30;32.20;;;12.75;;
76852;SDS011;65825;52.232;10.566;2024-01-11T07:09:55;25.47;;;12.70;;
76852;SDS011;65825;52.232;10.566;2024-01-11T07:12:21;32.00;;;12.33;;
76852;SDS011;65825;52.232;10.566;2024-01-11T07:14:46;36.93;;;11.93;;
76852;SDS011;65825;52.232;10.566;2024-01-11T07:17:11;25.93;;;10.63;;
76852;SDS011;65825;52.232;10.566;2024-01-11T07:19:36;33.97;;;11.97;;
76852;SDS011;65825;52.232;10.566;2024-01-11T07:22:02;29.53;;;12.00;;
76852;SDS011;65825;52.232;10.566;2024-01-11T07:24:27;24.53;;;10.93;;
76852;SDS011;65825;52.232;10.566;2024-01-11T07:26:54;27.83;;;11.27;;
76852;SDS011;65825;52.232;10.566;2024-01-11T07:29:20;25.03;;;12.90;;
76852;SDS011;65825;52.232;10.566;2024-01-11T07:31:45;26.40;;;12.40;;
76852;SDS011;65825;52.232;10.566;2024-01-11T07:34:10;24.13;;;10.20;;
76852;SDS011;65825;52.232;10.566;2024-01-11T07:36:36;31.05;;;12.05;;
76852;SDS011;65825;52.232;10.566;2024-01-11T07:39:01;32.20;;;13.03;;
76852;SDS011;65825;52.232;10.566;2024-01-11T07:41:26;28.10;;;12.33;;
76852;SDS011;65825;52.232;10.566;2024-01-11T07:43:51;23.87;;;11.20;;
76852;SDS011;65825;52.232;10.566;2024-01-11T07:46:17;23.43;;;10.10;;
76852;SDS011;65825;52.232;10.566;2024-01-11T07:48:42;34.17;;;12.53;;
76852;SDS011;65825;52.232;10.566;2024-01-11T07:51:07;32.73;;;12.93;;
76852;SDS011;65825;52.232;10.566;2024-01-11T07:53:32;30.73;;;11.93;;
76852;SDS011;65825;52.232;10.566;2024-01-11T07:55:58;27.00;;;11.03;;
76852;SDS011;65825;52.232;10.566;2024-01-11T07:58:23;27.37;;;10.83;;
76852;SDS011;65825;52.232;10.566;2024-01-11T08:00:48;39.00;;;13.30;;
76852;SDS011;65825;52.232;10.566;2024-01-11T08:03:14;20.83;;;10.13;;
76852;SDS011;65825;52.232;10.566;2024-01-11T08:05:39;30.52;;;10.95;;
76852;SDS011;65825;52.232;10.566;2024-01-11T08:08:05;32.50;;;12.82;;
76852;SDS011;65825;52.232;10.566;2024-01-11T08:10:30;27.67;;;11.03;;
76852;SDS011;65825;52.232;10.566;2024-01-11T08:12:56;22.25;;;9.60;;
76852;SDS011;65825;52.232;10.566;2024-01-11T08:15:21;17.23;;;7.70;;
76852;SDS011;65825;52.232;10.566;2024-01-11T08:17:47;31.38;;;11.77;;
76852;SDS011;65825;52.232;10.566;2024-01-11T08:20:13;27.63;;;11.18;;
76852;SDS011;65825;52.232;10.566;2024-01-11T08:22:39;27.50;;;10.68;;
76852;SDS011;65825;52.232;10.566;2024-01-11T08:25:06;27.80;;;12.55;;
76852;SDS011;65825;52.232;10.566;2024-01-11T08:27:32;24.88;;;11.77;;
76852;SDS011;65825;52.232;10.566;2024-01-11T08:29:58;30.50;;;11.73;;
76852;SDS011;65825;52.232;10.566;2024-01-11T08:32:25;23.00;;;10.07;;
76852;SDS011;65825;52.232;10.566;2024-01-11T08:34:50;24.63;;;10.87;;
76852;SDS011;65825;52.232;10.566;2024-01-11T08:37:15;24.70;;;10.87;;
76852;SDS011;65825;52.232;10.566;2024-01-11T08:39:40;28.63;;;12.53;;
76852;SDS011;65825;52.232;10.566;2024-01-11T08:42:06;24.70;;;12.27;;
76852;SDS011;65825;52.232;10.566;2024-01-11T08:44:31;29.47;;;13.00;;
76852;SDS011;65825;52.232;10.566;2024-01-11T08:46:57;30.25;;;12.50;;
76852;SDS011;65825;52.232;10.566;2024-01-11T08:49:23;38.47;;;13.45;;
76852;SDS011;65825;52.232;10.566;2024-01-11T08:51:49;31.77;;;14.65;;
76852;SDS011;65825;52.232;10.566;2024-01-11T08:54:14;30.37;;;11.93;;
76852;SDS011;65825;52.232;10.566;2024-01-11T08:56:41;31.15;;;12.25;;
76852;SDS011;65825;52.232;10.566;2024-01-11T08:59:06;38.35;;;13.10;;
76852;SDS011;65825;52.232;10.566;2024-01-11T09:01:33;31.13;;;11.57;;
76852;SDS011;65825;52.232;10.566;2024-01-11T09:04:00;31.83;;;13.50;;
76852;SDS011;65825;52.232;10.566;2024-01-11T09:06:26;21.53;;;9.30;;
76852;SDS011;65825;52.232;10.566;2024-01-11T09:08:51;36.57;;;12.90;;
76852;SDS011;65825;52.232;10.566;2024-01-11T09:11:17;32.65;;;12.95;;
76852;SDS011;65825;52.232;10.566;2024-01-11T09:13:42;28.47;;;11.23;;
76852;SDS011;65825;52.232;10.566;2024-01-11T09:16:08;23.52;;;11.13;;
76852;SDS011;65825;52.232;10.566;2024-01-11T09:18:34;28.98;;;12.60;;
76852;SDS011;65825;52.232;10.566;2024-01-11T09:20:59;39.60;;;12.93;;
76852;SDS011;65825;52.232;10.566;2024-01-11T09:23:24;32.27;;;11.47;;
76852;SDS011;65825;52.232;10.566;2024-01-11T09:25:50;28.97;;;11.20;;
76852;SDS011;65825;52.232;10.566;2024-01-11T09:28:15;29.88;;;11.38;;
76852;SDS011;65825;52.232;10.566;2024-01-11T09:30:40;30.93;;;11.57;;
76852;SDS011;65825;52.232;10.566;2024-01-11T09:33:06;31.37;;;11.73;;
76852;SDS011;65825;52.232;10.566;2024-01-11T09:35:31;29.87;;;13.30;;
76852;SDS011;65825;52.232;10.566;2024-01-11T09:37:56;25.67;;;10.67;;
76852;SDS011;65825;52.232;10.566;2024-01-11T09:40:21;32.00;;;11.70;;
76852;SDS011;65825;52.232;10.566;2024-01-11T09:42:47;23.20;;;10.45;;
76852;SDS011;65825;52.232;10.566;2024-01-11T09:45:14;26.02;;;9.13;;
76852;SDS011;65825;52.232;10.566;2024-01-11T09:47:43;25.60;;;9.75;;
76852;SDS011;65825;52.232;10.566;2024-01-11T09:52:40;11.63;;;6.85;;
76852;SDS011;65825;52.232;10.566;2024-01-11T09:55:07;33.80;;;11.93;;
76852;SDS011;65825;52.232;10.566;2024-01-11T09:57:33;28.03;;;10.97;;
76852;SDS011;65825;52.232;10.566;2024-01-11T10:00:03;21.08;;;8.90;;
76852;SDS011;65825;52.232;10.566;2024-01-11T10:02:29;25.23;;;8.95;;
76852;SDS011;65825;52.232;10.566;2024-01-11T10:04:54;28.33;;;11.70;;
76852;SDS011;65825;52.232;10.566;2024-01-11T10:07:22;31.30;;;10.25;;
76852;SDS011;65825;52.232;10.566;2024-01-11T10:09:48;28.15;;;9.85;;
76852;SDS011;65825;52.232;10.566;2024-01-11T10:12:14;28.70;;;9.90;;
76852;SDS011;65825;52.232;10.566;2024-01-11T10:14:39;24.33;;;8.60;;
76852;SDS011;65825;52.232;10.566;2024-01-11T10:17:05;18.90;;;8.47;;
76852;SDS011;65825;52.232;10.566;2024-01-11T10:19:31;24.17;;;10.55;;
76852;SDS011;65825;52.232;10.566;2024-01-11T10:21:57;28.20;;;10.00;;
76852;SDS011;65825;52.232;10.566;2024-01-11T10:24:23;23.35;;;9.02;;
76852;SDS011;65825;52.232;10.566;2024-01-11T10:26:51;16.73;;;6.15;;
76852;SDS011;65825;52.232;10.566;2024-01-11T10:29:20;15.48;;;6.30;;
76852;SDS011;65825;52.232;10.566;2024-01-11T10:31:45;19.90;;;6.93;;
76852;SDS011;65825;52.232;10.566;2024-01-11T10:34:10;12.70;;;4.77;;
76852;SDS011;65825;52.232;10.566;2024-01-11T10:36:36;21.93;;;7.60;;
76852;SDS011;65825;52.232;10.566;2024-01-11T10:39:01;11.93;;;5.68;;
76852;SDS011;65825;52.232;10.566;2024-01-11T10:41:32;24.15;;;7.35;;
76852;SDS011;65825;52.232;10.566;2024-01-11T10:44:05;19.40;;;7.82;;
76852;SDS011;65825;52.232;10.566;2024-01-11T10:46:43;20.52;;;5.10;;
76852;SDS011;65825;52.232;10.566;2024-01-11T10:49:10;15.25;;;5.13;;
76852;SDS011;65825;52.232;10.566;2024-01-11T10:51:41;17.30;;;6.72;;
76852;SDS011;65825;52.232;10.566;2024-01-11T10:54:10;17.05;;;6.50;;
76852;SDS011;65825;52.232;10.566;2024-01-11T10:56:35;19.23;;;7.15;;
76852;SDS011;65825;52.232;10.566;2024-01-11T10:59:04;13.75;;;5.57;;
76852;SDS011;65825;52.232;10.566;2024-01-11T11:01:29;13.20;;;6.13;;
76852;SDS011;65825;52.232;10.566;2024-01-11T11:03:55;18.02;;;5.63;;
76852;SDS011;65825;52.232;10.566;2024-01-11T11:06:22;23.48;;;7.65;;
76852;SDS011;65825;52.232;10.566;2024-01-11T11:08:48;25.23;;;8.20;;
76852;SDS011;65825;52.232;10.566;2024-01-11T11:11:15;22.33;;;7.53;;
76852;SDS011;65825;52.232;10.566;2024-01-11T11:13:43;22.13;;;7.43;;
76852;SDS011;65825;52.232;10.566;2024-01-11T11:16:11;16.98;;;6.55;;
76852;SDS011;65825;52.232;10.566;2024-01-11T11:18:36;7.73;;;4.27;;
76852;SDS011;65825;52.232;10.566;2024-01-11T11:21:06;15.85;;;5.65;;
76852;SDS011;65825;52.232;10.566;2024-01-11T11:23:35;15.57;;;6.63;;
76852;SDS011;65825;52.232;10.566;2024-01-11T11:26:00;14.97;;;6.77;;
76852;SDS011;65825;52.232;10.566;2024-01-11T11:28:25;18.17;;;6.83;;
76852;SDS011;65825;52.232;10.566;2024-01-11T11:30:52;28.60;;;7.97;;
76852;SDS011;65825;52.232;10.566;2024-01-11T11:33:18;14.38;;;5.90;;
76852;SDS011;65825;52.232;10.566;2024-01-11T11:35:45;18.95;;;6.32;;
76852;SDS011;65825;52.232;10.566;2024-01-11T11:38:18;23.13;;;8.73;;
76852;SDS011;65825;52.232;10.566;2024-01-11T11:40:45;24.40;;;8.38;;
76852;SDS011;65825;52.232;10.566;2024-01-11T11:43:12;22.40;;;8.40;;
76852;SDS011;65825;52.232;10.566;2024-01-11T11:45:39;21.10;;;7.35;;
76852;SDS011;65825;52.232;10.566;2024-01-11T11:51:07;24.33;;;7.85;;
76852;SDS011;65825;52.232;10.566;2024-01-11T11:53:39;22.75;;;7.68;;
76852;SDS011;65825;52.232;10.566;2024-01-11T11:56:05;23.48;;;8.80;;
76852;SDS011;65825;52.232;10.566;2024-01-11T11:58:32;31.95;;;10.18;;
76852;SDS011;65825;52.232;10.566;2024-01-11T12:00:59;40.70;;;10.82;;
76852;SDS011;65825;52.232;10.566;2024-01-11T12:03:29;19.98;;;7.65;;
76852;SDS011;65825;52.232;10.566;2024-01-11T12:05:57;23.70;;;8.48;;
76852;SDS011;65825;52.232;10.566;2024-01-11T12:08:22;28.88;;;8.25;;
76852;SDS011;65825;52.232;10.566;2024-01-11T12:10:48;40.20;;;11.80;;
76852;SDS011;65825;52.232;10.566;2024-01-11T12:13:13;16.13;;;6.80;;
76852;SDS011;65825;52.232;10.566;2024-01-11T12:15:39;27.35;;;9.80;;
76852;SDS011;65825;52.232;10.566;2024-01-11T12:18:05;27.80;;;8.60;;
76852;SDS011;65825;52.232;10.566;2024-01-11T12:20:32;25.90;;;9.75;;
76852;SDS011;65825;52.232;10.566;2024-01-11T12:22:58;27.88;;;9.32;;
76852;SDS011;65825;52.232;10.566;2024-01-11T12:25:23;24.90;;;8.85;;
76852;SDS011;65825;52.232;10.566;2024-01-11T12:27:48;26.40;;;9.00;;
76852;SDS011;65825;52.232;10.566;2024-01-11T12:30:14;19.93;;;6.53;;
76852;SDS011;65825;52.232;10.566;2024-01-11T12:35:07;16.60;;;7.03;;
76852;SDS011;65825;52.232;10.566;2024-01-11T12:37:33;21.23;;;7.55;;
76852;SDS011;65825;52.232;10.566;2024-01-11T12:39:58;16.83;;;6.80;;
76852;SDS011;65825;52.232;10.566;2024-01-11T12:42:27;22.08;;;7.43;;
76852;SDS011;65825;52.232;10.566;2024-01-11T12:44:52;27.73;;;9.75;;
76852;SDS011;65825;52.232;10.566;2024-01-11T12:47:18;29.15;;;7.45;;
76852;SDS011;65825;52.232;10.566;2024-01-11T12:49:44;19.27;;;7.28;;
76852;SDS011;65825;52.232;10.566;2024-01-11T12:52:17;22.60;;;8.85;;
76852;SDS011;65825;52.232;10.566;2024-01-11T12:54:43;21.45;;;8.32;;
76852;SDS011;65825;52.232;10.566;2024-01-11T12:57:12;26.17;;;7.07;;
76852;SDS011;65825;52.232;10.566;2024-01-11T12:59:42;30.45;;;10.40;;
76852;SDS011;65825;52.232;10.566;2024-01-11T13:02:07;32.33;;;10.35;;
76852;SDS011;65825;52.232;10.566;2024-01-11T13:04:33;26.20;;;8.70;;
76852;SDS011;65825;52.232;10.566;2024-01-11T13:06:59;26.23;;;7.93;;
76852;SDS011;65825;52.232;10.566;2024-01-11T13:09:25;21.27;;;7.82;;
76852;SDS011;65825;52.232;10.566;2024-01-11T13:11:50;30.23;;;9.37;;
76852;SDS011;65825;52.232;10.566;2024-01-11T13:14:15;25.35;;;8.45;;
76852;SDS011;65825;52.232;10.566;2024-01-11T13:16:44;27.73;;;8.60;;
76852;SDS011;65825;52.232;10.566;2024-01-11T13:19:10;23.90;;;8.98;;
76852;SDS011;65825;52.232;10.566;2024-01-11T13:21:36;22.08;;;8.45;;
76852;SDS011;65825;52.232;10.566;2024-01-11T13:24:02;24.90;;;7.97;;
76852;SDS011;65825;52.232;10.566;2024-01-11T13:26:27;29.45;;;8.10;;
76852;SDS011;65825;52.232;10.566;2024-01-11T13:28:52;26.20;;;6.00;;
76852;SDS011;65825;52.232;10.566;2024-01-11T13:31:18;18.93;;;7.27;;
76852;SDS011;65825;52.232;10.566;2024-01-11T13:33:43;21.93;;;9.43;;
76852;SDS011;65825;52.232;10.566;2024-01-11T13:36:08;31.70;;;12.00;;
76852;SDS011;65825;52.232;10.566;2024-01-11T13:38:34;52.47;;;16.45;;
76852;SDS011;65825;52.232;10.566;2024-01-11T13:40:59;46.72;;;18.23;;
76852;SDS011;65825;52.232;10.566;2024-01-11T13:43:25;29.90;;;11.03;;
76852;SDS011;65825;52.232;10.566;2024-01-11T13:45:50;31.60;;;11.97;;
76852;SDS011;65825;52.232;10.566;2024-01-11T13:48:15;38.03;;;13.00;;
76852;SDS011;65825;52.232;10.566;2024-01-11T13:50:40;30.07;;;11.80;;
76852;SDS011;65825;52.232;10.566;2024-01-11T13:53:06;30.20;;;10.53;;
76852;SDS011;65825;52.232;10.566;2024-01-11T13:55:31;30.87;;;9.57;;
76852;SDS011;65825;52.232;10.566;2024-01-11T13:58:02;27.13;;;8.43;;
76852;SDS011;65825;52.232;10.566;2024-01-11T14:00:28;29.50;;;11.95;;
76852;SDS011;65825;52.232;10.566;2024-01-11T14:02:54;39.80;;;15.75;;
76852;SDS011;65825;52.232;10.566;2024-01-11T14:05:19;59.33;;;22.90;;
76852;SDS011;65825;52.232;10.566;2024-01-11T14:07:44;60.50;;;21.70;;
76852;SDS011;65825;52.232;10.566;2024-01-11T14:10:10;62.40;;;22.25;;